createdAt,value
2023-12-30T00:00:34.085Z,11.23
2023-12-30T00:03:00.697Z,10.89
2023-12-30T00:05:27.338Z,10.74
2023-12-30T00:07:53.715Z,11.15
2023-12-30T00:10:20.067Z,11.26
2023-12-30T00:12:46.424Z,11.16
2023-12-30T00:15:12.859Z,10.72
2023-12-30T00:17:39.221Z,10.63
2023-12-30T00:20:05.646Z,10.98
2023-12-30T00:22:32.357Z,10.71
2023-12-30T00:24:58.722Z,10.87
2023-12-30T00:27:25.052Z,10.87
2023-12-30T00:29:51.548Z,10.85
2023-12-30T00:32:17.912Z,10.09
2023-12-30T00:34:44.302Z,10.48
2023-12-30T00:37:10.787Z,10.12
2023-12-30T00:39:37.122Z,9.83
2023-12-30T00:42:03.448Z,9.42
2023-12-30T00:44:29.798Z,9.15
2023-12-30T00:46:56.115Z,9.21
2023-12-30T00:49:22.493Z,9.06
2023-12-30T00:51:48.945Z,8.54
2023-12-30T00:54:15.288Z,8.84
2023-12-30T00:56:41.589Z,8.60
2023-12-30T00:59:07.989Z,8.08
2023-12-30T01:01:34.375Z,8.32
2023-12-30T01:04:00.779Z,8.19
2023-12-30T01:06:27.146Z,8.22
2023-12-30T01:08:53.453Z,7.91
2023-12-30T01:11:19.797Z,8.08
2023-12-30T01:13:46.140Z,7.90
2023-12-30T01:16:12.555Z,8.07
2023-12-30T01:18:39.203Z,8.03
2023-12-30T01:21:05.659Z,8.15
2023-12-30T01:23:31.979Z,8.22
2023-12-30T01:25:58.282Z,8.34
2023-12-30T01:28:24.670Z,8.19
2023-12-30T01:30:51.114Z,7.97
2023-12-30T01:33:17.562Z,7.65
2023-12-30T01:35:44.092Z,7.66
2023-12-30T01:38:10.510Z,7.88
2023-12-30T01:40:36.901Z,7.62
2023-12-30T01:43:04.146Z,7.65
2023-12-30T01:45:30.968Z,7.26
2023-12-30T01:47:57.413Z,7.55
2023-12-30T01:50:23.751Z,7.67
2023-12-30T01:52:50.072Z,7.49
2023-12-30T01:55:16.456Z,7.80
2023-12-30T01:57:42.856Z,7.62
2023-12-30T02:00:09.163Z,7.65
2023-12-30T02:02:35.967Z,7.64
2023-12-30T02:05:02.378Z,7.38
2023-12-30T02:07:28.765Z,7.57
2023-12-30T02:09:55.240Z,7.72
2023-12-30T02:12:21.570Z,7.85
2023-12-30T02:14:47.958Z,7.89
2023-12-30T02:17:14.329Z,7.80
2023-12-30T02:19:40.670Z,8.48
2023-12-30T02:22:07.081Z,8.33
2023-12-30T02:24:33.452Z,8.50
2023-12-30T02:26:59.769Z,8.77
2023-12-30T02:29:26.078Z,8.65
2023-12-30T02:31:52.537Z,8.87
2023-12-30T02:34:19.228Z,8.66
2023-12-30T02:36:45.845Z,8.39
2023-12-30T02:39:12.371Z,8.67
2023-12-30T02:41:38.680Z,8.56
2023-12-30T02:44:04.989Z,8.66
2023-12-30T02:46:31.565Z,8.93
2023-12-30T02:48:58.128Z,9.41
2023-12-30T02:51:24.561Z,8.77
2023-12-30T02:53:50.889Z,9.27
2023-12-30T02:56:17.197Z,8.98
2023-12-30T02:58:43.513Z,8.63
2023-12-30T03:01:09.947Z,8.74
2023-12-30T03:03:36.710Z,8.97
2023-12-30T03:06:03.077Z,9.03
2023-12-30T03:08:29.517Z,8.79
2023-12-30T03:10:55.933Z,9.15
2023-12-30T03:13:22.299Z,9.17
2023-12-30T03:15:48.700Z,9.30
2023-12-30T03:18:15.092Z,9.70
2023-12-30T03:20:41.435Z,9.85
2023-12-30T03:23:07.871Z,9.95
2023-12-30T03:25:34.669Z,9.73
2023-12-30T03:28:01.249Z,9.63
2023-12-30T03:30:27.732Z,10.00
2023-12-30T03:32:54.107Z,10.01
2023-12-30T03:35:20.481Z,9.90
2023-12-30T03:37:46.880Z,9.72
2023-12-30T03:40:13.229Z,9.74
2023-12-30T03:42:39.596Z,9.70
2023-12-30T03:45:06.042Z,9.86
2023-12-30T03:47:32.370Z,9.37
2023-12-30T03:49:58.767Z,9.46
2023-12-30T03:52:25.283Z,9.63
2023-12-30T03:54:52.913Z,9.15
2023-12-30T03:57:19.767Z,9.03
2023-12-30T03:59:46.087Z,9.27
2023-12-30T04:02:12.437Z,9.29
2023-12-30T04:04:38.751Z,9.30
2023-12-30T04:07:05.181Z,9.28
2023-12-30T04:09:31.506Z,9.69
2023-12-30T04:11:57.864Z,9.22
2023-12-30T04:14:24.337Z,9.27
2023-12-30T04:16:50.706Z,9.47
2023-12-30T04:19:17.165Z,9.67
2023-12-30T04:21:43.579Z,9.21
2023-12-30T04:24:09.914Z,9.38
2023-12-30T04:26:36.496Z,9.34
2023-12-30T04:29:02.845Z,9.89
2023-12-30T04:31:29.212Z,9.73
2023-12-30T04:33:55.709Z,9.69
2023-12-30T04:36:22.094Z,9.66
2023-12-30T04:38:48.404Z,9.93
2023-12-30T04:41:14.757Z,9.61
2023-12-30T04:43:41.148Z,10.07
2023-12-30T04:46:07.503Z,10.12
2023-12-30T04:48:33.885Z,10.71
2023-12-30T04:51:00.288Z,10.77
2023-12-30T04:53:26.621Z,10.55
2023-12-30T04:55:52.994Z,10.37
2023-12-30T04:58:19.422Z,9.99
2023-12-30T05:00:45.885Z,10.16
2023-12-30T05:03:12.356Z,10.40
2023-12-30T05:05:38.922Z,10.39
2023-12-30T05:08:06.888Z,10.33
2023-12-30T05:10:33.442Z,10.30
2023-12-30T05:12:59.962Z,9.53
2023-12-30T05:15:26.328Z,9.62
2023-12-30T05:17:52.822Z,9.83
2023-12-30T05:20:20.047Z,9.85
2023-12-30T05:22:46.385Z,10.14
2023-12-30T05:25:12.758Z,10.23
2023-12-30T05:27:39.148Z,10.46
2023-12-30T05:30:05.503Z,9.79
2023-12-30T05:32:31.862Z,9.23
2023-12-30T05:34:58.303Z,8.60
2023-12-30T05:37:24.730Z,8.55
2023-12-30T05:39:51.143Z,8.75
2023-12-30T05:42:17.497Z,8.84
2023-12-30T05:44:43.829Z,9.01
2023-12-30T05:47:10.145Z,8.76
2023-12-30T05:49:36.483Z,8.67
2023-12-30T05:52:02.835Z,8.82
2023-12-30T05:54:29.172Z,8.99
2023-12-30T05:56:55.516Z,8.54
2023-12-30T05:59:21.847Z,8.83
2023-12-30T06:01:48.317Z,8.67
2023-12-30T06:04:14.926Z,9.37
2023-12-30T06:06:41.300Z,9.68
2023-12-30T06:09:07.624Z,9.71
2023-12-30T06:11:34.192Z,9.17
2023-12-30T06:14:00.504Z,9.16
2023-12-30T06:16:26.865Z,9.47
2023-12-30T06:18:53.308Z,9.27
2023-12-30T06:21:19.694Z,8.85
2023-12-30T06:23:46.009Z,9.00
2023-12-30T06:26:12.546Z,9.27
2023-12-30T06:28:38.909Z,9.22
2023-12-30T06:31:05.372Z,9.27
2023-12-30T06:33:31.794Z,9.33
2023-12-30T06:35:58.168Z,9.28
2023-12-30T06:38:24.522Z,8.86
2023-12-30T06:40:50.840Z,8.82
2023-12-30T06:43:17.164Z,8.82
2023-12-30T06:45:43.529Z,9.08
2023-12-30T06:48:09.955Z,9.02
2023-12-30T06:50:36.329Z,8.60
2023-12-30T06:53:02.755Z,8.68
2023-12-30T06:55:35.289Z,8.82
2023-12-30T06:58:08.032Z,9.14
2023-12-30T07:00:34.451Z,9.38
2023-12-30T07:03:00.826Z,9.70
2023-12-30T07:05:27.170Z,9.30
2023-12-30T07:07:53.569Z,9.22
2023-12-30T07:10:19.936Z,9.37
2023-12-30T07:12:46.271Z,9.84
2023-12-30T07:15:13.142Z,10.15
2023-12-30T07:17:39.558Z,10.00
2023-12-30T07:20:05.904Z,10.13
2023-12-30T07:22:32.352Z,10.16
2023-12-30T07:24:58.700Z,9.87
2023-12-30T07:27:25.055Z,10.12
2023-12-30T07:29:51.411Z,9.63
2023-12-30T07:32:17.733Z,10.17
2023-12-30T07:34:44.110Z,10.23
2023-12-30T07:37:10.873Z,10.55
2023-12-30T07:39:37.238Z,10.72
2023-12-30T07:42:03.573Z,10.31
2023-12-30T07:44:30.236Z,10.33
2023-12-30T07:46:56.627Z,10.72
2023-12-30T07:49:22.992Z,11.18
2023-12-30T07:51:49.774Z,10.81
2023-12-30T07:54:16.096Z,10.65
2023-12-30T07:56:42.432Z,10.50
2023-12-30T07:59:08.841Z,10.31
2023-12-30T08:01:35.259Z,10.12
2023-12-30T08:04:01.757Z,10.23
2023-12-30T08:06:28.178Z,9.93
2023-12-30T08:08:54.560Z,10.01
2023-12-30T08:11:20.888Z,10.15
2023-12-30T08:13:47.349Z,10.23
2023-12-30T08:16:13.862Z,10.35
2023-12-30T08:18:40.280Z,10.44
2023-12-30T08:21:06.669Z,10.61
2023-12-30T08:23:32.998Z,10.45
2023-12-30T08:25:59.323Z,9.61
2023-12-30T08:28:25.801Z,9.66
2023-12-30T08:30:52.316Z,9.71
2023-12-30T08:33:18.837Z,10.37
2023-12-30T08:35:45.302Z,9.40
2023-12-30T08:38:11.977Z,8.25
2023-12-30T08:40:38.343Z,8.32
2023-12-30T08:43:05.074Z,8.19
2023-12-30T08:45:31.818Z,7.99
2023-12-30T08:47:58.181Z,7.61
2023-12-30T08:50:24.631Z,7.39
2023-12-30T08:52:50.980Z,7.23
2023-12-30T08:55:17.341Z,6.80
2023-12-30T08:57:43.721Z,6.17
2023-12-30T09:00:10.106Z,6.21
2023-12-30T09:02:36.493Z,5.94
2023-12-30T09:05:03.067Z,6.08
2023-12-30T09:07:29.525Z,5.70
2023-12-30T09:09:55.945Z,5.61
2023-12-30T09:12:22.316Z,5.54
2023-12-30T09:14:48.640Z,5.86
2023-12-30T09:17:15.127Z,5.49
2023-12-30T09:19:41.604Z,6.11
2023-12-30T09:22:07.959Z,8.17
2023-12-30T09:24:34.314Z,8.24
2023-12-30T09:27:00.736Z,8.63
2023-12-30T09:29:27.041Z,8.91
2023-12-30T09:31:53.455Z,8.45
2023-12-30T09:34:29.933Z,9.07
2023-12-30T09:37:04.923Z,9.01
2023-12-30T09:39:31.298Z,9.22
2023-12-30T09:41:57.672Z,10.10
2023-12-30T09:44:23.994Z,10.16
2023-12-30T09:46:50.359Z,9.89
2023-12-30T09:49:16.807Z,9.97
2023-12-30T09:51:43.191Z,10.09
2023-12-30T09:54:09.563Z,9.66
2023-12-30T09:56:35.886Z,9.26
2023-12-30T09:59:02.211Z,8.66
2023-12-30T10:01:28.719Z,8.89
2023-12-30T10:03:55.183Z,8.83
2023-12-30T10:06:21.518Z,9.14
2023-12-30T10:08:47.856Z,8.89
2023-12-30T10:11:14.170Z,9.04
2023-12-30T10:13:40.508Z,8.17
2023-12-30T10:16:07.047Z,8.47
2023-12-30T10:18:33.508Z,8.21
2023-12-30T10:20:59.848Z,8.01
2023-12-30T10:23:26.247Z,8.22
2023-12-30T10:25:52.559Z,7.90
2023-12-30T10:28:18.968Z,7.56
2023-12-30T10:30:45.505Z,6.94
2023-12-30T10:33:12.107Z,7.05
2023-12-30T10:35:38.615Z,7.37
2023-12-30T10:38:05.166Z,7.16
2023-12-30T10:40:31.583Z,7.27
2023-12-30T10:42:57.932Z,7.52
2023-12-30T10:45:24.289Z,7.41
2023-12-30T10:47:50.602Z,7.50
2023-12-30T10:50:17.034Z,7.40
2023-12-30T10:52:43.518Z,7.61
2023-12-30T10:55:09.885Z,7.23
2023-12-30T10:57:36.220Z,7.66
2023-12-30T11:00:02.560Z,7.63
2023-12-30T11:02:28.878Z,8.04
2023-12-30T11:04:56.374Z,7.71
2023-12-30T11:07:22.870Z,7.82
2023-12-30T11:09:49.202Z,7.60
2023-12-30T11:12:15.519Z,7.76
2023-12-30T11:14:42.027Z,7.66
2023-12-30T11:17:08.352Z,7.38
2023-12-30T11:19:35.321Z,7.68
2023-12-30T11:22:01.794Z,7.18
2023-12-30T11:24:28.223Z,7.17
2023-12-30T11:26:54.561Z,7.37
2023-12-30T11:29:21.062Z,7.40
2023-12-30T11:31:47.462Z,7.39
2023-12-30T11:34:13.853Z,7.08
2023-12-30T11:36:40.213Z,7.02
2023-12-30T11:39:06.545Z,7.22
2023-12-30T11:41:32.862Z,7.28
2023-12-30T11:43:59.336Z,7.09
2023-12-30T11:46:25.712Z,7.19
2023-12-30T11:48:52.103Z,6.88
2023-12-30T11:51:18.643Z,6.69
2023-12-30T11:53:44.962Z,6.83
2023-12-30T11:56:12.381Z,6.78
2023-12-30T11:58:39.033Z,6.49
2023-12-30T12:01:05.495Z,6.67
2023-12-30T12:03:32.050Z,6.78
2023-12-30T12:05:58.475Z,6.88
2023-12-30T12:08:24.904Z,6.86
2023-12-30T12:10:51.226Z,6.51
2023-12-30T12:13:17.709Z,6.17
2023-12-30T12:15:44.033Z,6.51
2023-12-30T12:18:10.633Z,6.35
2023-12-30T12:20:37.186Z,6.34
2023-12-30T12:23:03.693Z,6.49
2023-12-30T12:25:30.269Z,6.39
2023-12-30T12:27:56.658Z,6.67
2023-12-30T12:30:23.006Z,7.75
2023-12-30T12:32:49.357Z,7.38
2023-12-30T12:35:15.911Z,7.99
2023-12-30T12:37:42.511Z,7.84
2023-12-30T12:40:08.944Z,7.58
2023-12-30T12:42:35.399Z,6.83
2023-12-30T12:45:01.703Z,7.36
2023-12-30T12:47:28.115Z,7.31
2023-12-30T12:49:54.588Z,7.57
2023-12-30T12:52:20.970Z,7.54
2023-12-30T12:54:47.284Z,7.56
2023-12-30T12:57:13.785Z,7.92
2023-12-30T12:59:40.144Z,7.72
2023-12-30T13:02:06.668Z,7.92
2023-12-30T13:04:33.010Z,7.67
2023-12-30T13:06:59.409Z,8.01
2023-12-30T13:09:25.789Z,8.13
2023-12-30T13:11:52.122Z,8.13
2023-12-30T13:14:18.452Z,7.50
2023-12-30T13:16:44.824Z,6.58
2023-12-30T13:19:11.320Z,6.52
2023-12-30T13:21:37.678Z,7.61
2023-12-30T13:24:05.491Z,7.61
2023-12-30T13:26:31.912Z,7.10
2023-12-30T13:28:58.271Z,6.05
2023-12-30T13:31:24.680Z,5.74
2023-12-30T13:33:51.194Z,5.97
2023-12-30T13:36:17.638Z,6.29
2023-12-30T13:38:44.004Z,6.04
2023-12-30T13:41:10.338Z,5.14
2023-12-30T13:43:36.790Z,6.80
2023-12-30T13:46:03.170Z,6.11
2023-12-30T13:48:29.552Z,7.36
2023-12-30T13:50:56.471Z,8.02
2023-12-30T13:53:23.218Z,8.38
2023-12-30T13:55:49.585Z,8.34
2023-12-30T13:58:15.943Z,7.30
2023-12-30T14:00:42.350Z,6.97
2023-12-30T14:03:08.793Z,6.73
2023-12-30T14:05:35.223Z,5.24
2023-12-30T14:08:01.614Z,4.89
2023-12-30T14:10:27.974Z,5.47
2023-12-30T14:12:54.293Z,4.75
2023-12-30T14:15:20.660Z,6.08
2023-12-30T14:17:47.062Z,5.38
2023-12-30T14:20:13.467Z,4.71
2023-12-30T14:22:39.993Z,5.21
2023-12-30T14:25:06.457Z,4.35
2023-12-30T14:27:34.605Z,4.43
2023-12-30T14:30:02.281Z,4.32
2023-12-30T14:32:28.595Z,4.05
2023-12-30T14:34:54.956Z,3.70
2023-12-30T14:37:21.324Z,4.13
2023-12-30T14:39:47.651Z,4.01
2023-12-30T14:42:14.151Z,4.28
2023-12-30T14:44:40.466Z,4.31
2023-12-30T14:47:06.775Z,4.05
2023-12-30T14:49:33.172Z,4.26
2023-12-30T14:51:59.524Z,4.56
2023-12-30T14:54:25.889Z,4.81
2023-12-30T14:56:52.223Z,5.02
2023-12-30T14:59:18.551Z,4.99
2023-12-30T15:01:45.035Z,5.21
2023-12-30T15:04:11.485Z,5.24
2023-12-30T15:06:37.922Z,5.67
2023-12-30T15:09:04.228Z,6.87
2023-12-30T15:11:30.553Z,8.45
2023-12-30T15:13:57.075Z,9.04
2023-12-30T15:16:23.514Z,9.13
2023-12-30T15:18:50.055Z,9.51
2023-12-30T15:21:16.503Z,9.81
2023-12-30T15:23:42.833Z,9.93
2023-12-30T15:26:09.198Z,9.96
2023-12-30T15:28:35.572Z,9.47
2023-12-30T15:31:02.100Z,9.47
2023-12-30T15:33:28.590Z,8.91
2023-12-30T15:35:54.975Z,9.44
2023-12-30T15:38:21.307Z,9.54
2023-12-30T15:40:47.754Z,9.53
2023-12-30T15:43:14.819Z,9.30
2023-12-30T15:45:41.424Z,9.76
2023-12-30T15:48:07.986Z,9.39
2023-12-30T15:50:34.431Z,9.95
2023-12-30T15:53:00.747Z,9.08
2023-12-30T15:55:27.106Z,9.07
2023-12-30T15:57:53.450Z,9.13
2023-12-30T16:00:19.894Z,9.47
2023-12-30T16:02:46.221Z,9.18
2023-12-30T16:05:12.706Z,9.82
2023-12-30T16:07:39.147Z,9.46
2023-12-30T16:10:05.724Z,9.69
2023-12-30T16:12:32.216Z,9.35
2023-12-30T16:14:58.533Z,9.69
2023-12-30T16:17:24.835Z,9.51
2023-12-30T16:19:51.319Z,9.35
2023-12-30T16:22:17.750Z,9.50
2023-12-30T16:24:44.450Z,9.53
2023-12-30T16:27:10.764Z,8.93
2023-12-30T16:29:37.104Z,9.20
2023-12-30T16:32:03.446Z,9.32
2023-12-30T16:34:29.873Z,8.78
2023-12-30T16:36:56.293Z,8.63
2023-12-30T16:39:22.627Z,8.80
2023-12-30T16:41:49.055Z,9.05
2023-12-30T16:44:15.413Z,9.33
2023-12-30T16:46:41.802Z,9.37
2023-12-30T16:49:08.271Z,9.16
2023-12-30T16:51:35.091Z,9.71
2023-12-30T16:54:01.515Z,9.99
2023-12-30T16:56:27.867Z,10.47
2023-12-30T16:58:54.180Z,10.82
2023-12-30T17:01:20.593Z,11.26
2023-12-30T17:03:46.939Z,11.02
2023-12-30T17:06:13.296Z,10.76
2023-12-30T17:08:39.622Z,10.70
2023-12-30T17:11:05.938Z,10.80
2023-12-30T17:13:39.229Z,10.37
2023-12-30T17:16:09.685Z,9.71
2023-12-30T17:18:36.127Z,9.61
2023-12-30T17:21:02.490Z,9.09
2023-12-30T17:23:28.811Z,9.24
2023-12-30T17:25:55.123Z,8.99
2023-12-30T17:28:21.486Z,8.58
2023-12-30T17:30:47.999Z,8.31
2023-12-30T17:33:14.505Z,8.51
2023-12-30T17:35:40.860Z,8.74
2023-12-30T17:38:07.230Z,8.24
2023-12-30T17:40:33.636Z,8.44
2023-12-30T17:43:00.367Z,8.49
2023-12-30T17:45:26.997Z,8.63
2023-12-30T17:47:53.360Z,8.39
2023-12-30T17:50:19.729Z,8.63
2023-12-30T17:52:46.060Z,8.72
2023-12-30T17:55:12.428Z,8.53
2023-12-30T17:57:38.781Z,8.25
2023-12-30T18:00:05.088Z,8.11
2023-12-30T18:02:31.469Z,8.38
2023-12-30T18:04:57.887Z,7.89
2023-12-30T18:07:24.403Z,7.92
2023-12-30T18:09:50.742Z,7.60
2023-12-30T18:12:17.100Z,7.41
2023-12-30T18:14:43.411Z,7.67
2023-12-30T18:17:09.723Z,7.98
2023-12-30T18:19:36.211Z,8.70
2023-12-30T18:22:02.779Z,8.61
2023-12-30T18:24:29.274Z,8.71
2023-12-30T18:26:55.583Z,9.01
2023-12-30T18:29:21.909Z,9.32
2023-12-30T18:31:48.259Z,9.83
2023-12-30T18:34:14.868Z,10.48
2023-12-30T18:36:41.273Z,10.67
2023-12-30T18:39:07.606Z,10.70
2023-12-30T18:41:33.919Z,11.18
2023-12-30T18:44:00.260Z,10.47
2023-12-30T18:46:26.822Z,10.40
2023-12-30T18:48:53.268Z,10.61
2023-12-30T18:51:19.605Z,10.60
2023-12-30T18:53:45.916Z,10.62
2023-12-30T18:56:12.242Z,10.72
2023-12-30T18:58:38.615Z,10.69
2023-12-30T19:01:05.031Z,10.19
2023-12-30T19:03:31.432Z,10.17
2023-12-30T19:05:57.859Z,9.70
2023-12-30T19:08:24.204Z,10.13
2023-12-30T19:10:50.564Z,9.93
2023-12-30T19:13:17.060Z,9.62
2023-12-30T19:15:43.374Z,9.34
2023-12-30T19:18:09.767Z,9.12
2023-12-30T19:20:36.294Z,8.53
2023-12-30T19:23:02.846Z,8.51
2023-12-30T19:25:29.405Z,8.25
2023-12-30T19:27:55.793Z,8.38
2023-12-30T19:30:22.137Z,8.39
2023-12-30T19:32:48.630Z,8.03
2023-12-30T19:35:15.189Z,7.87
2023-12-30T19:37:41.974Z,8.29
2023-12-30T19:40:08.329Z,8.41
2023-12-30T19:42:34.738Z,8.24
2023-12-30T19:45:01.088Z,7.84
2023-12-30T19:47:27.506Z,8.06
2023-12-30T19:49:53.887Z,7.92
2023-12-30T19:52:20.263Z,7.45
2023-12-30T19:54:46.643Z,7.66
2023-12-30T19:57:12.980Z,8.34
2023-12-30T19:59:39.281Z,7.95
2023-12-30T20:02:05.672Z,7.81
2023-12-30T20:04:32.097Z,7.82
2023-12-30T20:06:58.454Z,7.80
2023-12-30T20:09:24.764Z,8.52
2023-12-30T20:11:51.078Z,8.70
2023-12-30T20:14:17.410Z,9.13
2023-12-30T20:16:43.797Z,10.07
2023-12-30T20:19:10.294Z,9.72
2023-12-30T20:21:36.697Z,9.28
2023-12-30T20:24:03.005Z,9.83
2023-12-30T20:26:29.330Z,9.85
2023-12-30T20:28:55.694Z,10.72
2023-12-30T20:31:22.146Z,10.45
2023-12-30T20:33:48.559Z,10.33
2023-12-30T20:36:14.909Z,10.51
2023-12-30T20:38:41.213Z,9.96
2023-12-30T20:41:07.506Z,9.18
2023-12-30T20:43:33.920Z,9.00
2023-12-30T20:46:00.307Z,9.13
2023-12-30T20:48:26.696Z,9.32
2023-12-30T20:50:53.095Z,9.06
2023-12-30T20:53:19.401Z,9.07
2023-12-30T20:55:45.734Z,9.06
2023-12-30T20:58:12.082Z,9.45
2023-12-30T21:00:38.474Z,10.15
2023-12-30T21:03:05.043Z,9.76
2023-12-30T21:05:31.514Z,9.71
2023-12-30T21:07:57.853Z,9.44
2023-12-30T21:10:24.202Z,8.91
2023-12-30T21:12:50.555Z,9.43
2023-12-30T21:15:16.879Z,9.02
2023-12-30T21:17:43.190Z,8.71
2023-12-30T21:20:09.509Z,8.84
2023-12-30T21:22:36.101Z,9.02
2023-12-30T21:25:11.930Z,9.62
2023-12-30T21:27:45.604Z,9.61
2023-12-30T21:30:12.051Z,9.89
2023-12-30T21:32:38.427Z,10.05
2023-12-30T21:35:04.801Z,9.95
2023-12-30T21:37:38.972Z,9.92
2023-12-30T21:40:08.391Z,9.79
2023-12-30T21:42:34.716Z,9.09
2023-12-30T21:45:01.031Z,8.74
2023-12-30T21:47:27.496Z,7.63
2023-12-30T21:49:53.905Z,7.53
2023-12-30T21:52:20.296Z,6.93
2023-12-30T21:54:46.651Z,6.70
2023-12-30T21:57:12.984Z,6.90
2023-12-30T21:59:39.301Z,6.77
2023-12-30T22:02:05.645Z,6.73
2023-12-30T22:04:32.020Z,6.55
2023-12-30T22:06:58.392Z,6.95
2023-12-30T22:09:24.698Z,7.72
2023-12-30T22:11:51.019Z,7.99
2023-12-30T22:14:17.353Z,8.82
2023-12-30T22:16:43.899Z,9.53
2023-12-30T22:19:10.388Z,9.19
2023-12-30T22:21:36.817Z,9.80
2023-12-30T22:24:03.178Z,9.59
2023-12-30T22:26:29.563Z,9.99
2023-12-30T22:28:55.903Z,9.25
2023-12-30T22:31:22.292Z,9.16
2023-12-30T22:33:48.730Z,9.00
2023-12-30T22:36:15.100Z,9.19
2023-12-30T22:38:41.436Z,9.06
2023-12-30T22:41:07.778Z,8.58
2023-12-30T22:43:34.182Z,7.94
2023-12-30T22:46:00.552Z,8.14
2023-12-30T22:48:26.919Z,7.86
2023-12-30T22:50:53.281Z,7.67
2023-12-30T22:53:19.609Z,7.04
2023-12-30T22:55:46.035Z,6.65
2023-12-30T22:58:12.889Z,6.18
2023-12-30T23:00:39.287Z,6.44
2023-12-30T23:03:05.919Z,6.68
2023-12-30T23:05:32.552Z,6.48
2023-12-30T23:07:58.917Z,6.43
2023-12-30T23:10:25.550Z,6.18
2023-12-30T23:12:51.910Z,6.38
2023-12-30T23:15:18.233Z,6.47
2023-12-30T23:17:44.740Z,6.41
2023-12-30T23:20:11.127Z,6.56
2023-12-30T23:22:37.605Z,7.11
2023-12-30T23:25:03.986Z,7.48
2023-12-30T23:27:30.310Z,7.62
2023-12-30T23:29:56.626Z,7.35
2023-12-30T23:32:22.939Z,7.01
2023-12-30T23:34:50.723Z,6.71
2023-12-30T23:37:18.254Z,6.84
2023-12-30T23:39:44.691Z,6.51
2023-12-30T23:42:11.013Z,6.62
2023-12-30T23:44:37.355Z,6.41
2023-12-30T23:47:03.816Z,6.17
2023-12-30T23:49:30.166Z,6.20
2023-12-30T23:51:56.482Z,6.28
2023-12-30T23:54:22.802Z,5.65
2023-12-30T23:56:49.127Z,5.30
2023-12-30T23:59:18.202Z,5.66
